sensor_id;sensor_type;location;lat;lon;timestamp;temperature;humidity
4755;DHT22;2391;47.212;7.542;2024-01-27T00:00:07;9.20;99.90
4755;DHT22;2391;47.212;7.542;2024-01-27T00:02:33;9.10;99.90
4755;DHT22;2391;47.212;7.542;2024-01-27T00:04:59;9.00;99.90
4755;DHT22;2391;47.212;7.542;2024-01-27T00:07:25;8.80;99.90
4755;DHT22;2391;47.212;7.542;2024-01-27T00:09:52;8.70;99.90
4755;DHT22;2391;47.212;7.542;2024-01-27T00:12:18;8.60;99.90
4755;DHT22;2391;47.212;7.542;2024-01-27T00:14:44;8.50;99.90
4755;DHT22;2391;47.212;7.542;2024-01-27T00:17:10;8.50;99.90
4755;DHT22;2391;47.212;7.542;2024-01-27T00:19:35;8.50;99.90
4755;DHT22;2391;47.212;7.542;2024-01-27T00:22:01;8.40;99.90
4755;DHT22;2391;47.212;7.542;2024-01-27T00:24:28;8.50;99.90
4755;DHT22;2391;47.212;7.542;2024-01-27T00:26:54;8.60;99.90
4755;DHT22;2391;47.212;7.542;2024-01-27T00:29:20;8.70;99.90
4755;DHT22;2391;47.212;7.542;2024-01-27T00:31:46;8.70;99.90
4755;DHT22;2391;47.212;7.542;2024-01-27T00:34:12;8.70;99.90
4755;DHT22;2391;47.212;7.542;2024-01-27T00:36:38;8.70;99.90
4755;DHT22;2391;47.212;7.542;2024-01-27T00:39:04;8.60;99.90
4755;DHT22;2391;47.212;7.542;2024-01-27T00:41:30;8.60;99.90
4755;DHT22;2391;47.212;7.542;2024-01-27T00:43:56;8.60;99.90
4755;DHT22;2391;47.212;7.542;2024-01-27T00:46:21;8.60;99.90
4755;DHT22;2391;47.212;7.542;2024-01-27T00:48:47;8.60;99.90
4755;DHT22;2391;47.212;7.542;2024-01-27T00:51:13;8.60;99.90
4755;DHT22;2391;47.212;7.542;2024-01-27T00:53:40;8.70;99.90
4755;DHT22;2391;47.212;7.542;2024-01-27T00:56:06;8.70;99.90
4755;DHT22;2391;47.212;7.542;2024-01-27T00:58:32;8.70;99.90
4755;DHT22;2391;47.212;7.542;2024-01-27T01:00:58;8.60;99.90
4755;DHT22;2391;47.212;7.542;2024-01-27T01:03:24;8.50;99.90
4755;DHT22;2391;47.212;7.542;2024-01-27T01:05:50;8.50;99.90
4755;DHT22;2391;47.212;7.542;2024-01-27T01:08:15;8.40;99.90
4755;DHT22;2391;47.212;7.542;2024-01-27T01:10:41;8.40;99.90
4755;DHT22;2391;47.212;7.542;2024-01-27T01:13:07;8.40;99.90
4755;DHT22;2391;47.212;7.542;2024-01-27T01:15:33;8.40;99.90
4755;DHT22;2391;47.212;7.542;2024-01-27T01:17:59;8.40;99.90
4755;DHT22;2391;47.212;7.542;2024-01-27T01:20:25;8.50;99.90
4755;DHT22;2391;47.212;7.542;2024-01-27T01:22:52;8.40;99.90
4755;DHT22;2391;47.212;7.542;2024-01-27T01:25:18;8.40;99.90
4755;DHT22;2391;47.212;7.542;2024-01-27T01:27:45;8.40;99.90
4755;DHT22;2391;47.212;7.542;2024-01-27T01:30:12;8.40;99.90
4755;DHT22;2391;47.212;7.542;2024-01-27T01:32:39;8.30;99.90
4755;DHT22;2391;47.212;7.542;2024-01-27T01:35:05;8.30;99.90
4755;DHT22;2391;47.212;7.542;2024-01-27T01:37:31;8.30;99.90
4755;DHT22;2391;47.212;7.542;2024-01-27T01:39:56;8.20;99.90
4755;DHT22;2391;47.212;7.542;2024-01-27T01:42:27;8.20;99.90
4755;DHT22;2391;47.212;7.542;2024-01-27T01:44:53;8.20;99.90
4755;DHT22;2391;47.212;7.542;2024-01-27T01:47:19;8.10;99.90
4755;DHT22;2391;47.212;7.542;2024-01-27T01:49:45;8.10;99.90
4755;DHT22;2391;47.212;7.542;2024-01-27T01:52:11;8.00;99.90
4755;DHT22;2391;47.212;7.542;2024-01-27T01:54:37;8.10;99.90
4755;DHT22;2391;47.212;7.542;2024-01-27T01:57:03;8.20;99.90
4755;DHT22;2391;47.212;7.542;2024-01-27T01:59:32;8.20;99.70
4755;DHT22;2391;47.212;7.542;2024-01-27T02:01:58;8.10;99.60
4755;DHT22;2391;47.212;7.542;2024-01-27T02:04:25;8.10;99.70
4755;DHT22;2391;47.212;7.542;2024-01-27T02:06:51;8.10;99.60
4755;DHT22;2391;47.212;7.542;2024-01-27T02:09:17;8.00;99.70
4755;DHT22;2391;47.212;7.542;2024-01-27T02:11:43;7.90;99.60
4755;DHT22;2391;47.212;7.542;2024-01-27T02:14:08;7.90;99.60
4755;DHT22;2391;47.212;7.542;2024-01-27T02:16:34;7.90;99.50
4755;DHT22;2391;47.212;7.542;2024-01-27T02:19:00;7.80;99.60
4755;DHT22;2391;47.212;7.542;2024-01-27T02:21:26;7.80;99.70
4755;DHT22;2391;47.212;7.542;2024-01-27T02:23:52;7.60;99.70
4755;DHT22;2391;47.212;7.542;2024-01-27T02:26:17;7.60;99.90
4755;DHT22;2391;47.212;7.542;2024-01-27T02:28:43;7.50;99.80
4755;DHT22;2391;47.212;7.542;2024-01-27T02:31:09;7.50;99.90
4755;DHT22;2391;47.212;7.542;2024-01-27T02:33:34;7.50;99.80
4755;DHT22;2391;47.212;7.542;2024-01-27T02:36:00;7.50;99.90
4755;DHT22;2391;47.212;7.542;2024-01-27T02:38:26;7.50;99.90
4755;DHT22;2391;47.212;7.542;2024-01-27T02:40:52;7.40;99.90
4755;DHT22;2391;47.212;7.542;2024-01-27T02:43:17;7.40;99.90
4755;DHT22;2391;47.212;7.542;2024-01-27T02:45:43;7.40;99.90
4755;DHT22;2391;47.212;7.542;2024-01-27T02:48:09;7.40;99.80
4755;DHT22;2391;47.212;7.542;2024-01-27T02:50:35;7.40;99.90
4755;DHT22;2391;47.212;7.542;2024-01-27T02:53:00;7.40;99.70
4755;DHT22;2391;47.212;7.542;2024-01-27T02:55:26;7.40;99.90
4755;DHT22;2391;47.212;7.542;2024-01-27T02:57:52;7.40;99.60
4755;DHT22;2391;47.212;7.542;2024-01-27T03:00:18;7.40;99.60
4755;DHT22;2391;47.212;7.542;2024-01-27T03:02:44;7.40;99.50
4755;DHT22;2391;47.212;7.542;2024-01-27T03:05:10;7.40;99.50
4755;DHT22;2391;47.212;7.542;2024-01-27T03:07:37;7.40;99.50
4755;DHT22;2391;47.212;7.542;2024-01-27T03:10:04;7.40;99.50
4755;DHT22;2391;47.212;7.542;2024-01-27T03:12:30;7.40;99.50
4755;DHT22;2391;47.212;7.542;2024-01-27T03:14:56;7.40;99.40
4755;DHT22;2391;47.212;7.542;2024-01-27T03:17:21;7.30;99.40
4755;DHT22;2391;47.212;7.542;2024-01-27T03:19:47;7.30;99.50
4755;DHT22;2391;47.212;7.542;2024-01-27T03:22:13;7.30;99.50
4755;DHT22;2391;47.212;7.542;2024-01-27T03:24:39;7.30;99.60
4755;DHT22;2391;47.212;7.542;2024-01-27T03:27:04;7.30;99.50
4755;DHT22;2391;47.212;7.542;2024-01-27T03:29:30;7.20;99.60
4755;DHT22;2391;47.212;7.542;2024-01-27T03:31:56;7.30;99.70
4755;DHT22;2391;47.212;7.542;2024-01-27T03:34:22;7.30;99.70
4755;DHT22;2391;47.212;7.542;2024-01-27T03:36:49;7.30;99.80
4755;DHT22;2391;47.212;7.542;2024-01-27T03:39:15;7.30;99.70
4755;DHT22;2391;47.212;7.542;2024-01-27T03:41:41;7.30;99.50
4755;DHT22;2391;47.212;7.542;2024-01-27T03:44:08;7.30;99.50
4755;DHT22;2391;47.212;7.542;2024-01-27T03:46:34;7.30;99.40
4755;DHT22;2391;47.212;7.542;2024-01-27T03:49:00;7.30;99.50
4755;DHT22;2391;47.212;7.542;2024-01-27T03:51:26;7.30;99.50
4755;DHT22;2391;47.212;7.542;2024-01-27T03:53:52;7.20;99.40
4755;DHT22;2391;47.212;7.542;2024-01-27T03:56:18;7.20;99.50
4755;DHT22;2391;47.212;7.542;2024-01-27T03:58:43;7.20;99.50
4755;DHT22;2391;47.212;7.542;2024-01-27T04:01:09;7.20;99.50
4755;DHT22;2391;47.212;7.542;2024-01-27T04:03:35;7.20;99.60
4755;DHT22;2391;47.212;7.542;2024-01-27T04:06:00;7.20;99.60
4755;DHT22;2391;47.212;7.542;2024-01-27T04:08:30;7.20;99.60
4755;DHT22;2391;47.212;7.542;2024-01-27T04:10:57;7.30;99.60
4755;DHT22;2391;47.212;7.542;2024-01-27T04:13:23;7.30;99.60
4755;DHT22;2391;47.212;7.542;2024-01-27T04:15:49;7.30;99.60
4755;DHT22;2391;47.212;7.542;2024-01-27T04:18:17;7.30;99.70
4755;DHT22;2391;47.212;7.542;2024-01-27T04:20:43;7.40;99.80
4755;DHT22;2391;47.212;7.542;2024-01-27T04:23:09;7.40;99.90
4755;DHT22;2391;47.212;7.542;2024-01-27T04:25:35;7.40;99.70
4755;DHT22;2391;47.212;7.542;2024-01-27T04:28:00;7.50;99.80
4755;DHT22;2391;47.212;7.542;2024-01-27T04:30:26;7.40;99.60
4755;DHT22;2391;47.212;7.542;2024-01-27T04:32:52;7.50;99.80
4755;DHT22;2391;47.212;7.542;2024-01-27T04:35:18;7.50;99.60
4755;DHT22;2391;47.212;7.542;2024-01-27T04:37:44;7.50;99.60
4755;DHT22;2391;47.212;7.542;2024-01-27T04:40:11;7.40;99.40
4755;DHT22;2391;47.212;7.542;2024-01-27T04:42:38;7.40;99.50
4755;DHT22;2391;47.212;7.542;2024-01-27T04:45:05;7.30;99.60
4755;DHT22;2391;47.212;7.542;2024-01-27T04:47:31;7.30;99.60
4755;DHT22;2391;47.212;7.542;2024-01-27T04:49:56;7.20;99.70
4755;DHT22;2391;47.212;7.542;2024-01-27T04:52:25;7.30;99.70
4755;DHT22;2391;47.212;7.542;2024-01-27T04:54:51;7.20;99.70
4755;DHT22;2391;47.212;7.542;2024-01-27T04:57:17;7.30;99.70
4755;DHT22;2391;47.212;7.542;2024-01-27T04:59:43;7.30;99.70
4755;DHT22;2391;47.212;7.542;2024-01-27T05:02:08;7.30;99.70
4755;DHT22;2391;47.212;7.542;2024-01-27T05:04:34;7.30;99.70
4755;DHT22;2391;47.212;7.542;2024-01-27T05:07:00;7.40;99.80
4755;DHT22;2391;47.212;7.542;2024-01-27T05:09:26;7.40;99.90
4755;DHT22;2391;47.212;7.542;2024-01-27T05:11:51;7.50;99.90
4755;DHT22;2391;47.212;7.542;2024-01-27T05:14:19;7.50;99.90
4755;DHT22;2391;47.212;7.542;2024-01-27T05:16:44;7.50;99.90
4755;DHT22;2391;47.212;7.542;2024-01-27T05:19:10;7.60;99.90
4755;DHT22;2391;47.212;7.542;2024-01-27T05:21:37;7.60;99.90
4755;DHT22;2391;47.212;7.542;2024-01-27T05:24:04;7.60;99.80
4755;DHT22;2391;47.212;7.542;2024-01-27T05:26:30;7.60;99.70
4755;DHT22;2391;47.212;7.542;2024-01-27T05:28:56;7.50;99.70
4755;DHT22;2391;47.212;7.542;2024-01-27T05:31:21;7.50;99.90
4755;DHT22;2391;47.212;7.542;2024-01-27T05:33:47;7.50;99.80
4755;DHT22;2391;47.212;7.542;2024-01-27T05:36:13;7.40;99.70
4755;DHT22;2391;47.212;7.542;2024-01-27T05:38:39;7.40;99.80
4755;DHT22;2391;47.212;7.542;2024-01-27T05:41:04;7.30;99.80
4755;DHT22;2391;47.212;7.542;2024-01-27T05:43:30;7.30;99.70
4755;DHT22;2391;47.212;7.542;2024-01-27T05:45:56;7.20;99.70
4755;DHT22;2391;47.212;7.542;2024-01-27T05:48:22;7.10;99.70
4755;DHT22;2391;47.212;7.542;2024-01-27T05:50:58;7.10;99.80
4755;DHT22;2391;47.212;7.542;2024-01-27T05:53:25;7.10;99.80
4755;DHT22;2391;47.212;7.542;2024-01-27T05:55:51;7.20;99.80
4755;DHT22;2391;47.212;7.542;2024-01-27T05:58:20;7.20;99.80
4755;DHT22;2391;47.212;7.542;2024-01-27T06:00:49;7.20;99.70
4755;DHT22;2391;47.212;7.542;2024-01-27T06:03:15;7.20;99.70
4755;DHT22;2391;47.212;7.542;2024-01-27T06:05:43;7.10;99.80
4755;DHT22;2391;47.212;7.542;2024-01-27T06:08:09;7.10;99.80
4755;DHT22;2391;47.212;7.542;2024-01-27T06:10:35;7.00;99.80
4755;DHT22;2391;47.212;7.542;2024-01-27T06:13:03;7.00;99.90
4755;DHT22;2391;47.212;7.542;2024-01-27T06:15:29;7.10;99.90
4755;DHT22;2391;47.212;7.542;2024-01-27T06:17:55;7.20;99.80
4755;DHT22;2391;47.212;7.542;2024-01-27T06:20:21;7.20;99.80
4755;DHT22;2391;47.212;7.542;2024-01-27T06:22:46;7.20;99.60
4755;DHT22;2391;47.212;7.542;2024-01-27T06:25:12;7.30;99.40
4755;DHT22;2391;47.212;7.542;2024-01-27T06:27:38;7.30;99.40
4755;DHT22;2391;47.212;7.542;2024-01-27T06:30:05;7.20;99.40
4755;DHT22;2391;47.212;7.542;2024-01-27T06:32:31;7.10;99.40
4755;DHT22;2391;47.212;7.542;2024-01-27T06:34:57;7.10;99.50
4755;DHT22;2391;47.212;7.542;2024-01-27T06:37:22;7.10;99.50
4755;DHT22;2391;47.212;7.542;2024-01-27T06:39:48;7.00;99.70
4755;DHT22;2391;47.212;7.542;2024-01-27T06:42:14;6.90;99.50
4755;DHT22;2391;47.212;7.542;2024-01-27T06:44:39;6.80;99.50
4755;DHT22;2391;47.212;7.542;2024-01-27T06:47:06;6.70;99.60
4755;DHT22;2391;47.212;7.542;2024-01-27T06:49:31;6.70;99.80
4755;DHT22;2391;47.212;7.542;2024-01-27T06:51:59;6.60;99.90
4755;DHT22;2391;47.212;7.542;2024-01-27T06:54:26;6.60;99.80
4755;DHT22;2391;47.212;7.542;2024-01-27T06:56:52;6.60;99.70
4755;DHT22;2391;47.212;7.542;2024-01-27T06:59:17;6.60;99.70
4755;DHT22;2391;47.212;7.542;2024-01-27T07:01:47;6.60;99.70
4755;DHT22;2391;47.212;7.542;2024-01-27T07:04:14;6.60;99.70
4755;DHT22;2391;47.212;7.542;2024-01-27T07:06:40;6.50;99.70
4755;DHT22;2391;47.212;7.542;2024-01-27T07:09:06;6.50;99.80
4755;DHT22;2391;47.212;7.542;2024-01-27T07:11:37;6.40;99.80
4755;DHT22;2391;47.212;7.542;2024-01-27T07:14:03;6.40;99.80
4755;DHT22;2391;47.212;7.542;2024-01-27T07:16:29;6.40;99.80
4755;DHT22;2391;47.212;7.542;2024-01-27T07:18:55;6.50;99.80
4755;DHT22;2391;47.212;7.542;2024-01-27T07:21:24;6.50;99.70
4755;DHT22;2391;47.212;7.542;2024-01-27T07:23:51;6.50;99.60
4755;DHT22;2391;47.212;7.542;2024-01-27T07:26:17;6.50;99.70
4755;DHT22;2391;47.212;7.542;2024-01-27T07:28:42;6.40;99.70
4755;DHT22;2391;47.212;7.542;2024-01-27T07:31:08;6.40;99.60
4755;DHT22;2391;47.212;7.542;2024-01-27T07:33:34;6.40;99.70
4755;DHT22;2391;47.212;7.542;2024-01-27T07:36:00;6.40;99.70
4755;DHT22;2391;47.212;7.542;2024-01-27T07:38:25;6.40;99.80
4755;DHT22;2391;47.212;7.542;2024-01-27T07:40:51;6.40;99.90
4755;DHT22;2391;47.212;7.542;2024-01-27T07:43:17;6.50;99.90
4755;DHT22;2391;47.212;7.542;2024-01-27T07:45:42;6.60;99.90
4755;DHT22;2391;47.212;7.542;2024-01-27T07:48:10;6.60;99.90
4755;DHT22;2391;47.212;7.542;2024-01-27T07:50:36;6.60;99.90
4755;DHT22;2391;47.212;7.542;2024-01-27T07:53:01;6.60;99.90
4755;DHT22;2391;47.212;7.542;2024-01-27T07:55:27;6.60;99.90
4755;DHT22;2391;47.212;7.542;2024-01-27T07:57:53;6.60;99.90
4755;DHT22;2391;47.212;7.542;2024-01-27T08:00:19;6.60;99.90
4755;DHT22;2391;47.212;7.542;2024-01-27T08:02:45;6.70;99.90
4755;DHT22;2391;47.212;7.542;2024-01-27T08:05:11;6.90;99.90
4755;DHT22;2391;47.212;7.542;2024-01-27T08:07:36;7.00;99.90
4755;DHT22;2391;47.212;7.542;2024-01-27T08:10:02;7.20;99.90
4755;DHT22;2391;47.212;7.542;2024-01-27T08:12:30;7.30;99.90
4755;DHT22;2391;47.212;7.542;2024-01-27T08:14:56;7.40;99.90
4755;DHT22;2391;47.212;7.542;2024-01-27T08:17:21;7.50;99.90
4755;DHT22;2391;47.212;7.542;2024-01-27T08:19:47;7.50;99.90
4755;DHT22;2391;47.212;7.542;2024-01-27T08:22:13;7.40;99.90
4755;DHT22;2391;47.212;7.542;2024-01-27T08:24:39;7.20;99.90
4755;DHT22;2391;47.212;7.542;2024-01-27T08:27:05;6.90;99.90
4755;DHT22;2391;47.212;7.542;2024-01-27T08:29:30;6.70;99.90
4755;DHT22;2391;47.212;7.542;2024-01-27T08:31:56;6.70;99.90
4755;DHT22;2391;47.212;7.542;2024-01-27T08:34:22;6.70;99.90
4755;DHT22;2391;47.212;7.542;2024-01-27T08:36:48;6.80;99.90
4755;DHT22;2391;47.212;7.542;2024-01-27T08:39:14;7.00;99.90
4755;DHT22;2391;47.212;7.542;2024-01-27T08:41:39;7.20;99.90
4755;DHT22;2391;47.212;7.542;2024-01-27T08:44:05;7.40;99.90
4755;DHT22;2391;47.212;7.542;2024-01-27T08:46:31;7.60;99.90
4755;DHT22;2391;47.212;7.542;2024-01-27T08:48:56;7.70;99.90
4755;DHT22;2391;47.212;7.542;2024-01-27T08:51:22;7.80;99.90
4755;DHT22;2391;47.212;7.542;2024-01-27T08:53:48;7.70;99.90
4755;DHT22;2391;47.212;7.542;2024-01-27T08:56:17;7.70;99.90
4755;DHT22;2391;47.212;7.542;2024-01-27T08:58:46;7.60;99.90
4755;DHT22;2391;47.212;7.542;2024-01-27T09:01:18;7.60;99.90
4755;DHT22;2391;47.212;7.542;2024-01-27T09:03:44;7.60;99.90
4755;DHT22;2391;47.212;7.542;2024-01-27T09:06:10;7.50;99.90
4755;DHT22;2391;47.212;7.542;2024-01-27T09:08:36;7.50;99.90
4755;DHT22;2391;47.212;7.542;2024-01-27T09:11:02;7.40;99.90
4755;DHT22;2391;47.212;7.542;2024-01-27T09:13:28;7.30;99.90
4755;DHT22;2391;47.212;7.542;2024-01-27T09:15:56;7.30;99.90
4755;DHT22;2391;47.212;7.542;2024-01-27T09:18:22;7.30;99.90
4755;DHT22;2391;47.212;7.542;2024-01-27T09:20:48;7.30;99.90
4755;DHT22;2391;47.212;7.542;2024-01-27T09:23:14;7.30;99.90
4755;DHT22;2391;47.212;7.542;2024-01-27T09:25:39;7.30;99.90
4755;DHT22;2391;47.212;7.542;2024-01-27T09:28:05;7.30;99.90
4755;DHT22;2391;47.212;7.542;2024-01-27T09:30:31;7.30;99.90
4755;DHT22;2391;47.212;7.542;2024-01-27T09:32:57;7.30;99.90
4755;DHT22;2391;47.212;7.542;2024-01-27T09:35:25;7.30;99.90
4755;DHT22;2391;47.212;7.542;2024-01-27T09:37:50;7.30;99.90
4755;DHT22;2391;47.212;7.542;2024-01-27T09:40:16;7.40;99.90
4755;DHT22;2391;47.212;7.542;2024-01-27T09:42:48;7.40;99.90
4755;DHT22;2391;47.212;7.542;2024-01-27T09:45:12;7.50;99.90
4755;DHT22;2391;47.212;7.542;2024-01-27T09:47:38;7.50;99.90
4755;DHT22;2391;47.212;7.542;2024-01-27T09:50:05;7.50;99.90
4755;DHT22;2391;47.212;7.542;2024-01-27T09:52:35;7.60;99.90
4755;DHT22;2391;47.212;7.542;2024-01-27T09:55:01;7.60;99.90
4755;DHT22;2391;47.212;7.542;2024-01-27T09:57:27;7.50;99.90
4755;DHT22;2391;47.212;7.542;2024-01-27T09:59:53;7.50;99.90
4755;DHT22;2391;47.212;7.542;2024-01-27T10:02:20;7.50;99.90
4755;DHT22;2391;47.212;7.542;2024-01-27T10:04:47;7.50;99.90
4755;DHT22;2391;47.212;7.542;2024-01-27T10:07:14;7.50;99.90
4755;DHT22;2391;47.212;7.542;2024-01-27T10:09:39;7.50;99.90
4755;DHT22;2391;47.212;7.542;2024-01-27T10:12:08;7.50;99.90
4755;DHT22;2391;47.212;7.542;2024-01-27T10:14:40;7.50;99.90
4755;DHT22;2391;47.212;7.542;2024-01-27T10:17:11;7.50;99.90
4755;DHT22;2391;47.212;7.542;2024-01-27T10:19:37;7.60;99.90
4755;DHT22;2391;47.212;7.542;2024-01-27T10:22:03;7.60;99.90
4755;DHT22;2391;47.212;7.542;2024-01-27T10:24:33;7.50;99.90
4755;DHT22;2391;47.212;7.542;2024-01-27T10:27:02;7.60;99.90
4755;DHT22;2391;47.212;7.542;2024-01-27T10:29:29;7.60;99.90
4755;DHT22;2391;47.212;7.542;2024-01-27T10:32:17;7.60;99.90
4755;DHT22;2391;47.212;7.542;2024-01-27T10:34:30;7.70;99.90
4755;DHT22;2391;47.212;7.542;2024-01-27T10:36:56;7.70;99.90
4755;DHT22;2391;47.212;7.542;2024-01-27T10:39:22;7.80;99.90
4755;DHT22;2391;47.212;7.542;2024-01-27T10:41:50;7.90;99.90
4755;DHT22;2391;47.212;7.542;2024-01-27T10:44:18;8.00;99.90
4755;DHT22;2391;47.212;7.542;2024-01-27T10:46:46;8.00;99.90
4755;DHT22;2391;47.212;7.542;2024-01-27T10:49:14;8.00;99.90
4755;DHT22;2391;47.212;7.542;2024-01-27T10:51:52;8.00;99.90
4755;DHT22;2391;47.212;7.542;2024-01-27T10:54:25;8.00;99.90
4755;DHT22;2391;47.212;7.542;2024-01-27T10:56:55;8.10;99.90
4755;DHT22;2391;47.212;7.542;2024-01-27T10:59:22;8.10;99.90
4755;DHT22;2391;47.212;7.542;2024-01-27T11:01:49;8.10;99.90
4755;DHT22;2391;47.212;7.542;2024-01-27T11:04:21;8.20;99.90
4755;DHT22;2391;47.212;7.542;2024-01-27T11:06:48;8.20;99.90
4755;DHT22;2391;47.212;7.542;2024-01-27T11:09:15;8.30;99.90
4755;DHT22;2391;47.212;7.542;2024-01-27T11:11:45;8.40;99.90
4755;DHT22;2391;47.212;7.542;2024-01-27T11:14:11;8.40;99.90
4755;DHT22;2391;47.212;7.542;2024-01-27T11:16:37;8.50;99.90
4755;DHT22;2391;47.212;7.542;2024-01-27T11:19:08;8.50;99.90
4755;DHT22;2391;47.212;7.542;2024-01-27T11:21:34;8.50;99.90
4755;DHT22;2391;47.212;7.542;2024-01-27T11:23:59;8.60;99.90
4755;DHT22;2391;47.212;7.542;2024-01-27T11:26:25;8.60;99.90
4755;DHT22;2391;47.212;7.542;2024-01-27T11:28:51;8.70;99.90
4755;DHT22;2391;47.212;7.542;2024-01-27T11:31:19;8.70;99.90
4755;DHT22;2391;47.212;7.542;2024-01-27T11:33:48;8.70;99.90
4755;DHT22;2391;47.212;7.542;2024-01-27T11:36:22;8.70;99.90
4755;DHT22;2391;47.212;7.542;2024-01-27T11:38:49;8.70;99.90
4755;DHT22;2391;47.212;7.542;2024-01-27T11:41:29;8.70;99.90
4755;DHT22;2391;47.212;7.542;2024-01-27T11:43:56;8.60;99.90
4755;DHT22;2391;47.212;7.542;2024-01-27T11:46:23;8.70;99.90
4755;DHT22;2391;47.212;7.542;2024-01-27T11:48:49;8.70;99.90
4755;DHT22;2391;47.212;7.542;2024-01-27T11:51:15;8.60;99.90
4755;DHT22;2391;47.212;7.542;2024-01-27T11:53:41;8.70;99.90
4755;DHT22;2391;47.212;7.542;2024-01-27T11:56:07;8.70;99.90
4755;DHT22;2391;47.212;7.542;2024-01-27T11:58:33;8.80;99.90
4755;DHT22;2391;47.212;7.542;2024-01-27T12:00:59;8.90;99.90
4755;DHT22;2391;47.212;7.542;2024-01-27T12:03:27;8.90;99.90
4755;DHT22;2391;47.212;7.542;2024-01-27T12:05:55;8.90;99.90
4755;DHT22;2391;47.212;7.542;2024-01-27T12:08:20;8.90;99.90
4755;DHT22;2391;47.212;7.542;2024-01-27T12:10:46;8.80;99.90
4755;DHT22;2391;47.212;7.542;2024-01-27T12:13:12;8.80;99.90
4755;DHT22;2391;47.212;7.542;2024-01-27T12:15:39;8.80;99.90
4755;DHT22;2391;47.212;7.542;2024-01-27T12:18:06;8.90;99.90
4755;DHT22;2391;47.212;7.542;2024-01-27T12:20:32;8.90;99.90
4755;DHT22;2391;47.212;7.542;2024-01-27T12:23:07;8.90;99.90
4755;DHT22;2391;47.212;7.542;2024-01-27T12:25:30;8.90;99.90
4755;DHT22;2391;47.212;7.542;2024-01-27T12:27:56;8.90;99.90
4755;DHT22;2391;47.212;7.542;2024-01-27T12:30:24;8.90;99.90
4755;DHT22;2391;47.212;7.542;2024-01-27T12:32:50;9.00;99.90
4755;DHT22;2391;47.212;7.542;2024-01-27T12:35:16;9.00;99.90
4755;DHT22;2391;47.212;7.542;2024-01-27T12:37:43;8.90;99.90
4755;DHT22;2391;47.212;7.542;2024-01-27T12:40:19;9.00;99.90
4755;DHT22;2391;47.212;7.542;2024-01-27T12:42:46;9.00;99.90
4755;DHT22;2391;47.212;7.542;2024-01-27T12:45:12;9.00;99.90
4755;DHT22;2391;47.212;7.542;2024-01-27T12:47:38;9.00;99.90
4755;DHT22;2391;47.212;7.542;2024-01-27T12:50:05;9.00;99.90
4755;DHT22;2391;47.212;7.542;2024-01-27T12:52:32;8.90;99.90
4755;DHT22;2391;47.212;7.542;2024-01-27T12:54:58;9.00;99.90
4755;DHT22;2391;47.212;7.542;2024-01-27T12:57:24;9.00;99.90
4755;DHT22;2391;47.212;7.542;2024-01-27T12:59:50;9.00;99.90
4755;DHT22;2391;47.212;7.542;2024-01-27T13:02:15;9.00;99.90
4755;DHT22;2391;47.212;7.542;2024-01-27T13:04:42;9.00;99.90
4755;DHT22;2391;47.212;7.542;2024-01-27T13:07:07;9.00;99.90
4755;DHT22;2391;47.212;7.542;2024-01-27T13:09:34;9.10;99.90
4755;DHT22;2391;47.212;7.542;2024-01-27T13:12:00;9.20;99.90
4755;DHT22;2391;47.212;7.542;2024-01-27T13:14:26;9.20;99.90
4755;DHT22;2391;47.212;7.542;2024-01-27T13:16:51;9.20;99.90
4755;DHT22;2391;47.212;7.542;2024-01-27T13:22:23;9.10;99.90
4755;DHT22;2391;47.212;7.542;2024-01-27T13:24:40;9.00;99.90
4755;DHT22;2391;47.212;7.542;2024-01-27T13:27:05;9.00;99.90
4755;DHT22;2391;47.212;7.542;2024-01-27T13:29:34;9.00;99.90
4755;DHT22;2391;47.212;7.542;2024-01-27T13:32:00;8.90;99.90
4755;DHT22;2391;47.212;7.542;2024-01-27T13:34:27;8.80;99.90
4755;DHT22;2391;47.212;7.542;2024-01-27T13:36:55;8.80;99.90
4755;DHT22;2391;47.212;7.542;2024-01-27T13:39:22;8.90;99.90
4755;DHT22;2391;47.212;7.542;2024-01-27T13:41:47;8.90;99.90
4755;DHT22;2391;47.212;7.542;2024-01-27T13:44:13;8.90;99.90
4755;DHT22;2391;47.212;7.542;2024-01-27T13:46:39;8.90;99.90
4755;DHT22;2391;47.212;7.542;2024-01-27T13:49:05;8.90;99.90
4755;DHT22;2391;47.212;7.542;2024-01-27T13:51:30;8.90;99.90
4755;DHT22;2391;47.212;7.542;2024-01-27T13:53:56;9.00;99.90
4755;DHT22;2391;47.212;7.542;2024-01-27T13:56:22;9.00;99.90
4755;DHT22;2391;47.212;7.542;2024-01-27T13:58:48;9.10;99.90
4755;DHT22;2391;47.212;7.542;2024-01-27T14:01:13;9.10;99.90
4755;DHT22;2391;47.212;7.542;2024-01-27T14:03:39;9.20;99.90
4755;DHT22;2391;47.212;7.542;2024-01-27T14:06:08;9.20;99.90
4755;DHT22;2391;47.212;7.542;2024-01-27T14:08:36;9.20;99.90
4755;DHT22;2391;47.212;7.542;2024-01-27T14:11:02;9.30;99.90
4755;DHT22;2391;47.212;7.542;2024-01-27T14:13:28;9.20;99.90
4755;DHT22;2391;47.212;7.542;2024-01-27T14:15:53;9.20;99.90
4755;DHT22;2391;47.212;7.542;2024-01-27T14:18:19;9.20;99.90
4755;DHT22;2391;47.212;7.542;2024-01-27T14:20:47;9.20;99.90
4755;DHT22;2391;47.212;7.542;2024-01-27T14:23:14;9.30;99.90
4755;DHT22;2391;47.212;7.542;2024-01-27T14:25:40;9.30;99.90
4755;DHT22;2391;47.212;7.542;2024-01-27T14:28:07;9.30;99.90
4755;DHT22;2391;47.212;7.542;2024-01-27T14:30:34;9.30;99.90
4755;DHT22;2391;47.212;7.542;2024-01-27T14:33:00;9.30;99.90
4755;DHT22;2391;47.212;7.542;2024-01-27T14:35:26;9.40;99.90
4755;DHT22;2391;47.212;7.542;2024-01-27T14:37:52;9.40;99.90
4755;DHT22;2391;47.212;7.542;2024-01-27T14:40:19;9.30;99.90
4755;DHT22;2391;47.212;7.542;2024-01-27T14:42:46;9.30;99.90
4755;DHT22;2391;47.212;7.542;2024-01-27T14:45:12;9.30;99.90
4755;DHT22;2391;47.212;7.542;2024-01-27T14:47:38;9.30;99.90
4755;DHT22;2391;47.212;7.542;2024-01-27T14:50:04;9.30;99.90
4755;DHT22;2391;47.212;7.542;2024-01-27T14:52:32;9.30;99.90
4755;DHT22;2391;47.212;7.542;2024-01-27T14:54:58;9.30;99.90
4755;DHT22;2391;47.212;7.542;2024-01-27T14:57:24;9.20;99.90
4755;DHT22;2391;47.212;7.542;2024-01-27T14:59:50;9.20;99.90
4755;DHT22;2391;47.212;7.542;2024-01-27T15:02:15;9.10;99.90
4755;DHT22;2391;47.212;7.542;2024-01-27T15:04:41;9.20;99.90
4755;DHT22;2391;47.212;7.542;2024-01-27T15:07:07;9.30;99.90
4755;DHT22;2391;47.212;7.542;2024-01-27T15:09:35;9.50;99.90
4755;DHT22;2391;47.212;7.542;2024-01-27T15:12:01;9.60;99.90
4755;DHT22;2391;47.212;7.542;2024-01-27T15:14:27;9.70;99.90
4755;DHT22;2391;47.212;7.542;2024-01-27T15:16:52;9.70;99.90
4755;DHT22;2391;47.212;7.542;2024-01-27T15:19:18;9.80;99.90
4755;DHT22;2391;47.212;7.542;2024-01-27T15:21:44;9.70;99.90
4755;DHT22;2391;47.212;7.542;2024-01-27T15:24:11;9.70;99.90
4755;DHT22;2391;47.212;7.542;2024-01-27T15:26:37;9.80;99.90
4755;DHT22;2391;47.212;7.542;2024-01-27T15:29:03;9.80;99.90
4755;DHT22;2391;47.212;7.542;2024-01-27T15:31:28;9.80;99.90
4755;DHT22;2391;47.212;7.542;2024-01-27T15:33:54;9.80;99.90
4755;DHT22;2391;47.212;7.542;2024-01-27T15:36:20;9.90;99.90
4755;DHT22;2391;47.212;7.542;2024-01-27T15:38:46;10.00;99.90
4755;DHT22;2391;47.212;7.542;2024-01-27T15:41:11;10.10;99.90
4755;DHT22;2391;47.212;7.542;2024-01-27T15:43:38;10.20;99.80
4755;DHT22;2391;47.212;7.542;2024-01-27T15:46:05;10.30;99.70
4755;DHT22;2391;47.212;7.542;2024-01-27T15:48:34;10.40;99.40
4755;DHT22;2391;47.212;7.542;2024-01-27T15:51:05;10.40;99.40
4755;DHT22;2391;47.212;7.542;2024-01-27T15:53:30;10.30;99.40
4755;DHT22;2391;47.212;7.542;2024-01-27T15:55:56;10.30;99.40
4755;DHT22;2391;47.212;7.542;2024-01-27T15:58:22;10.30;99.40
4755;DHT22;2391;47.212;7.542;2024-01-27T16:00:48;10.30;99.30
4755;DHT22;2391;47.212;7.542;2024-01-27T16:03:14;10.30;99.40
4755;DHT22;2391;47.212;7.542;2024-01-27T16:05:40;10.30;99.50
4755;DHT22;2391;47.212;7.542;2024-01-27T16:08:06;10.40;99.40
4755;DHT22;2391;47.212;7.542;2024-01-27T16:10:33;10.50;99.20
4755;DHT22;2391;47.212;7.542;2024-01-27T16:12:58;10.70;99.00